メインページ
METAR-TAF:

METAR-TAF

空港 :

ナタール, リオグランデ・ド・ノルテ州, ブラジル

緯度: 05-46-05S, 経度: 035-22-34W, 海抜: 88m

現時点の気象観測

当レポートは25分前の21:00(UTC)に作成
の風 12kt
気温 26°C
湿度 84%
気圧 1014 hPa
視程10km以上
高度500ftの雲はほとんどない
高度1500ftの雲は散在している
高度7000ftの千切れ雲あり
近辺でにわか雨

METAR: SBSG 202100Z 17012KT 9999 VCSH FEW005 SCT015 BKN070 26/23 Q1014

時間: 18:25 (21:25 UTC)

予報

当レポートは5時間25分前の16:00(UTC)に作成
予報は20日の 18時(UTC)から 21日の 18時(UTC)まで有効
の風 13kt
視程: 8000m
高度2000ftの雲は散在している
高度4000ftの雲は散在している
20日の 22時(UTC)から 20日の 24時(UTC)まで徐々に
の風 8kt
高度1700ftの千切れ雲あり
21日の 02時(UTC)から 21日の 03時(UTC)まで徐々に
南/南西の風 6kt
確率 40% :
21日の 05時(UTC)から 21日の 10時(UTC)まで一時的に
高度700ftの雲は散在している
高度1200ftの千切れ雲あり
21日の 10時(UTC)から 21日の 12時(UTC)まで徐々に
南/南東の風 13kt
21日の 16時(UTC)から 21日の 17時(UTC)まで徐々に
高度2000ftの雲は散在している

TAF: SBSG 201600Z 2018/2118 17013KT 8000 SCT020 SCT040 TN23/2108Z TX29 /2115Z BECMG 2022/2024 19008KT BKN017 BECMG 2102/2103 21006KT PROB40 TEMPO 2105/2110 SCT007 BKN012 BECMG 2110/2112 16013KT BECMG 2116/2117 SCT020 RMK PEU

4,000以上の空港の気象観測と天気予報(METAR報とTAF報)

利用可能な観測所は地図上に黄色い丸と赤い丸で示す。

丸の上にカーソルを重ねると観測所名を参照できる。

次にクリックすると気象観測と天気予報を参照できる。

マップの切り替え:黒色「×」印の緑ボタンをクリックして拡大、「-」印の緑ボタンをクリックして縮小、緑色の三角印をクリックして隣りの地図に切り替え


METAR-TAF: